header image
aktuelles Wetter

 Wetter METAR LOWG 240620Z 29003KT 4000 -SN BR FEW007 SCT009 OVC020 M03/M04 Q1003 R17/29//95 TEMPO 5000=

Willkommen arrow GSV Category 1 arrow Privatpilotenkurs in Graz

PPL-Kurse beginnen bei uns laufend. Auch Intensivkurs möglich >>jetzt anmelden

Träumst du noch - oder fliegst du schon Sollte ersteres zutreffen, besteht jetzt die Möglichkeit deine Träume in die Realität umzusetzen. Eine Ausbildung ohne Stress in geselliger Vereinsatmosphäre. Sicherheit, hochwertige Ausbildung sowie günstiges Fliegen mit TOP gewarteten Flugzeugen ... 


Next>
GSV-NEWSFLASH
Anfliegen2018

Unser Anfliegen am Sonntag dem 8.4.2018 fand bei herrlichem Frühlingswetter in LOKW statt.

Read more...
Privatpilotenausbildung in Graz

Surprised PPL-Kurse beginnen bei uns laufend! Nähere Informationen bei Stefan Berger-Goriupp Tel. 0664/3280296

geänderte Sprechfunkverfahren
Die ACG hat einige Anpassungen an der Phrasologie durchgeführt ...
Read more...
Bilder
P1000699.JPG
Wer ist Online
No Users Online